sensor_id;sensor_type;location;lat;lon;timestamp;P1;durP1;ratioP1;P2;durP2;ratioP2
20336;SDS011;10326;53.660;10.200;2022-08-03T00:01:05;2.95;;;2.63;;
20336;SDS011;10326;53.660;10.200;2022-08-03T00:03:32;3.05;;;2.83;;
20336;SDS011;10326;53.660;10.200;2022-08-03T00:05:59;3.15;;;2.85;;
20336;SDS011;10326;53.660;10.200;2022-08-03T00:08:28;3.63;;;3.20;;
20336;SDS011;10326;53.660;10.200;2022-08-03T00:10:55;3.78;;;3.30;;
20336;SDS011;10326;53.660;10.200;2022-08-03T00:13:22;3.38;;;3.08;;
20336;SDS011;10326;53.660;10.200;2022-08-03T00:15:50;3.90;;;3.50;;
20336;SDS011;10326;53.660;10.200;2022-08-03T00:18:17;3.83;;;2.90;;
20336;SDS011;10326;53.660;10.200;2022-08-03T00:20:44;3.30;;;3.00;;
20336;SDS011;10326;53.660;10.200;2022-08-03T00:23:12;3.33;;;2.78;;
20336;SDS011;10326;53.660;10.200;2022-08-03T00:25:40;3.42;;;3.13;;
20336;SDS011;10326;53.660;10.200;2022-08-03T00:28:08;3.10;;;2.78;;
20336;SDS011;10326;53.660;10.200;2022-08-03T00:30:35;4.20;;;3.17;;
20336;SDS011;10326;53.660;10.200;2022-08-03T00:33:02;3.13;;;2.92;;
20336;SDS011;10326;53.660;10.200;2022-08-03T00:35:30;3.63;;;3.33;;
20336;SDS011;10326;53.660;10.200;2022-08-03T00:37:57;3.28;;;2.97;;
20336;SDS011;10326;53.660;10.200;2022-08-03T00:40:24;3.53;;;3.22;;
20336;SDS011;10326;53.660;10.200;2022-08-03T00:42:54;3.03;;;2.83;;
20336;SDS011;10326;53.660;10.200;2022-08-03T00:45:23;3.50;;;3.20;;
20336;SDS011;10326;53.660;10.200;2022-08-03T00:47:53;3.17;;;2.88;;
20336;SDS011;10326;53.660;10.200;2022-08-03T00:50:21;3.35;;;3.15;;
20336;SDS011;10326;53.660;10.200;2022-08-03T00:52:51;3.17;;;2.88;;
20336;SDS011;10326;53.660;10.200;2022-08-03T00:55:20;3.35;;;3.05;;
20336;SDS011;10326;53.660;10.200;2022-08-03T00:57:47;3.65;;;3.20;;
20336;SDS011;10326;53.660;10.200;2022-08-03T01:00:17;3.22;;;3.03;;
20336;SDS011;10326;53.660;10.200;2022-08-03T01:02:47;3.40;;;3.20;;
20336;SDS011;10326;53.660;10.200;2022-08-03T01:05:14;3.83;;;3.53;;
20336;SDS011;10326;53.660;10.200;2022-08-03T01:07:45;4.00;;;3.70;;
20336;SDS011;10326;53.660;10.200;2022-08-03T01:10:27;3.70;;;3.40;;
20336;SDS011;10326;53.660;10.200;2022-08-03T01:13:09;3.50;;;3.20;;
20336;SDS011;10326;53.660;10.200;2022-08-03T01:15:52;3.63;;;3.33;;
20336;SDS011;10326;53.660;10.200;2022-08-03T01:18:27;3.95;;;3.60;;
20336;SDS011;10326;53.660;10.200;2022-08-03T01:21:02;3.85;;;3.55;;
20336;SDS011;10326;53.660;10.200;2022-08-03T01:23:48;3.70;;;3.40;;
20336;SDS011;10326;53.660;10.200;2022-08-03T01:26:36;3.72;;;3.40;;
20336;SDS011;10326;53.660;10.200;2022-08-03T01:32:36;3.50;;;3.20;;
20336;SDS011;10326;53.660;10.200;2022-08-03T01:35:10;4.28;;;3.42;;
20336;SDS011;10326;53.660;10.200;2022-08-03T01:37:40;3.30;;;3.10;;
20336;SDS011;10326;53.660;10.200;2022-08-03T01:40:13;3.92;;;3.40;;
20336;SDS011;10326;53.660;10.200;2022-08-03T01:42:41;3.67;;;3.38;;
20336;SDS011;10326;53.660;10.200;2022-08-03T01:45:13;3.88;;;3.47;;
20336;SDS011;10326;53.660;10.200;2022-08-03T01:47:42;3.70;;;3.40;;
20336;SDS011;10326;53.660;10.200;2022-08-03T01:50:11;3.80;;;3.50;;
20336;SDS011;10326;53.660;10.200;2022-08-03T01:52:40;3.80;;;3.53;;
20336;SDS011;10326;53.660;10.200;2022-08-03T01:55:10;4.05;;;3.75;;
20336;SDS011;10326;53.660;10.200;2022-08-03T01:57:38;4.10;;;3.80;;
20336;SDS011;10326;53.660;10.200;2022-08-03T02:00:08;4.00;;;3.70;;
20336;SDS011;10326;53.660;10.200;2022-08-03T02:02:38;4.20;;;3.90;;
20336;SDS011;10326;53.660;10.200;2022-08-03T02:05:08;3.97;;;3.67;;
20336;SDS011;10326;53.660;10.200;2022-08-03T02:07:37;4.25;;;3.95;;
20336;SDS011;10326;53.660;10.200;2022-08-03T02:10:06;3.70;;;3.50;;
20336;SDS011;10326;53.660;10.200;2022-08-03T02:12:35;4.95;;;3.83;;
20336;SDS011;10326;53.660;10.200;2022-08-03T02:15:04;3.55;;;3.25;;
20336;SDS011;10326;53.660;10.200;2022-08-03T02:17:33;3.97;;;3.70;;
20336;SDS011;10326;53.660;10.200;2022-08-03T02:20:03;3.97;;;3.70;;
20336;SDS011;10326;53.660;10.200;2022-08-03T02:22:32;4.30;;;3.90;;
20336;SDS011;10326;53.660;10.200;2022-08-03T02:25:00;4.00;;;3.70;;
20336;SDS011;10326;53.660;10.200;2022-08-03T02:27:27;4.57;;;4.18;;
20336;SDS011;10326;53.660;10.200;2022-08-03T02:30:00;4.53;;;3.92;;
20336;SDS011;10326;53.660;10.200;2022-08-03T02:32:31;4.10;;;3.80;;
20336;SDS011;10326;53.660;10.200;2022-08-03T02:35:03;4.35;;;4.03;;
20336;SDS011;10326;53.660;10.200;2022-08-03T02:37:36;4.82;;;4.03;;
20336;SDS011;10326;53.660;10.200;2022-08-03T02:40:09;4.75;;;4.07;;
20336;SDS011;10326;53.660;10.200;2022-08-03T02:42:39;4.50;;;4.10;;
20336;SDS011;10326;53.660;10.200;2022-08-03T02:45:09;4.90;;;4.50;;
20336;SDS011;10326;53.660;10.200;2022-08-03T02:47:38;4.13;;;3.83;;
20336;SDS011;10326;53.660;10.200;2022-08-03T02:50:08;4.75;;;4.35;;
20336;SDS011;10326;53.660;10.200;2022-08-03T02:52:38;3.85;;;3.55;;
20336;SDS011;10326;53.660;10.200;2022-08-03T02:55:07;4.55;;;4.13;;
20336;SDS011;10326;53.660;10.200;2022-08-03T02:57:36;4.80;;;4.40;;
20336;SDS011;10326;53.660;10.200;2022-08-03T03:00:05;4.72;;;4.40;;
20336;SDS011;10326;53.660;10.200;2022-08-03T03:02:34;4.45;;;4.15;;
20336;SDS011;10326;53.660;10.200;2022-08-03T03:05:02;4.53;;;4.15;;
20336;SDS011;10326;53.660;10.200;2022-08-03T03:07:32;4.43;;;4.03;;
20336;SDS011;10326;53.660;10.200;2022-08-03T03:10:01;4.38;;;4.07;;
20336;SDS011;10326;53.660;10.200;2022-08-03T03:12:28;4.53;;;4.13;;
20336;SDS011;10326;53.660;10.200;2022-08-03T03:14:57;5.38;;;4.22;;
20336;SDS011;10326;53.660;10.200;2022-08-03T03:17:24;4.50;;;4.10;;
20336;SDS011;10326;53.660;10.200;2022-08-03T03:19:52;4.57;;;4.28;;
20336;SDS011;10326;53.660;10.200;2022-08-03T03:22:21;5.38;;;4.43;;
20336;SDS011;10326;53.660;10.200;2022-08-03T03:24:51;4.55;;;4.25;;
20336;SDS011;10326;53.660;10.200;2022-08-03T03:27:18;4.75;;;4.30;;
20336;SDS011;10326;53.660;10.200;2022-08-03T03:29:46;4.63;;;4.25;;
20336;SDS011;10326;53.660;10.200;2022-08-03T03:32:14;3.90;;;3.70;;
20336;SDS011;10326;53.660;10.200;2022-08-03T03:34:41;5.20;;;4.43;;
20336;SDS011;10326;53.660;10.200;2022-08-03T03:37:09;4.22;;;3.83;;
20336;SDS011;10326;53.660;10.200;2022-08-03T03:39:36;4.70;;;4.30;;
20336;SDS011;10326;53.660;10.200;2022-08-03T03:42:05;4.65;;;4.22;;
20336;SDS011;10326;53.660;10.200;2022-08-03T03:44:32;4.68;;;4.28;;
20336;SDS011;10326;53.660;10.200;2022-08-03T03:46:59;4.22;;;3.92;;
20336;SDS011;10326;53.660;10.200;2022-08-03T03:49:26;4.43;;;4.03;;
20336;SDS011;10326;53.660;10.200;2022-08-03T03:51:54;4.22;;;3.92;;
20336;SDS011;10326;53.660;10.200;2022-08-03T03:54:21;4.68;;;4.25;;
20336;SDS011;10326;53.660;10.200;2022-08-03T03:56:48;4.60;;;4.20;;
20336;SDS011;10326;53.660;10.200;2022-08-03T03:59:16;4.97;;;4.57;;
20336;SDS011;10326;53.660;10.200;2022-08-03T04:01:44;4.65;;;4.28;;
20336;SDS011;10326;53.660;10.200;2022-08-03T04:04:11;4.80;;;4.40;;
20336;SDS011;10326;53.660;10.200;2022-08-03T04:06:56;5.15;;;4.75;;
20336;SDS011;10326;53.660;10.200;2022-08-03T04:09:41;4.85;;;4.45;;
20336;SDS011;10326;53.660;10.200;2022-08-03T04:12:27;4.95;;;4.55;;
20336;SDS011;10326;53.660;10.200;2022-08-03T04:14:56;4.70;;;4.30;;
20336;SDS011;10326;53.660;10.200;2022-08-03T04:17:26;4.95;;;4.55;;
20336;SDS011;10326;53.660;10.200;2022-08-03T04:19:55;4.85;;;4.55;;
20336;SDS011;10326;53.660;10.200;2022-08-03T04:22:25;5.28;;;4.88;;
20336;SDS011;10326;53.660;10.200;2022-08-03T04:24:57;4.80;;;4.50;;
20336;SDS011;10326;53.660;10.200;2022-08-03T04:27:30;4.78;;;4.47;;
20336;SDS011;10326;53.660;10.200;2022-08-03T04:30:03;5.18;;;4.78;;
20336;SDS011;10326;53.660;10.200;2022-08-03T04:32:31;4.90;;;4.50;;
20336;SDS011;10326;53.660;10.200;2022-08-03T04:35:01;4.30;;;4.00;;
20336;SDS011;10326;53.660;10.200;2022-08-03T04:37:32;4.97;;;4.68;;
20336;SDS011;10326;53.660;10.200;2022-08-03T04:40:05;5.13;;;4.78;;
20336;SDS011;10326;53.660;10.200;2022-08-03T04:42:36;4.63;;;4.32;;
20336;SDS011;10326;53.660;10.200;2022-08-03T04:45:06;5.07;;;4.68;;
20336;SDS011;10326;53.660;10.200;2022-08-03T04:47:37;5.07;;;4.68;;
20336;SDS011;10326;53.660;10.200;2022-08-03T04:50:05;4.47;;;4.18;;
20336;SDS011;10326;53.660;10.200;2022-08-03T04:52:34;4.60;;;4.30;;
20336;SDS011;10326;53.660;10.200;2022-08-03T04:55:01;4.93;;;4.60;;
20336;SDS011;10326;53.660;10.200;2022-08-03T04:57:29;4.97;;;4.57;;
20336;SDS011;10326;53.660;10.200;2022-08-03T04:59:56;5.45;;;5.05;;
20336;SDS011;10326;53.660;10.200;2022-08-03T05:02:25;4.35;;;3.95;;
20336;SDS011;10326;53.660;10.200;2022-08-03T05:04:52;5.43;;;4.93;;
20336;SDS011;10326;53.660;10.200;2022-08-03T05:07:18;4.70;;;4.40;;
20336;SDS011;10326;53.660;10.200;2022-08-03T05:09:46;5.00;;;4.70;;
20336;SDS011;10326;53.660;10.200;2022-08-03T05:12:12;4.85;;;4.55;;
20336;SDS011;10326;53.660;10.200;2022-08-03T05:14:39;5.60;;;5.20;;
20336;SDS011;10326;53.660;10.200;2022-08-03T05:17:07;5.18;;;4.85;;
20336;SDS011;10326;53.660;10.200;2022-08-03T05:19:36;5.40;;;5.00;;
20336;SDS011;10326;53.660;10.200;2022-08-03T05:22:03;5.50;;;5.10;;
20336;SDS011;10326;53.660;10.200;2022-08-03T05:24:30;4.88;;;4.53;;
20336;SDS011;10326;53.660;10.200;2022-08-03T05:26:57;4.68;;;4.38;;
20336;SDS011;10326;53.660;10.200;2022-08-03T05:29:24;5.97;;;5.38;;
20336;SDS011;10326;53.660;10.200;2022-08-03T05:31:51;5.25;;;4.85;;
20336;SDS011;10326;53.660;10.200;2022-08-03T05:34:18;5.90;;;5.40;;
20336;SDS011;10326;53.660;10.200;2022-08-03T05:36:46;4.78;;;4.43;;
20336;SDS011;10326;53.660;10.200;2022-08-03T05:39:13;5.10;;;4.80;;
20336;SDS011;10326;53.660;10.200;2022-08-03T05:41:40;5.43;;;4.97;;
20336;SDS011;10326;53.660;10.200;2022-08-03T05:44:07;5.10;;;4.70;;
20336;SDS011;10326;53.660;10.200;2022-08-03T05:46:34;5.20;;;4.80;;
20336;SDS011;10326;53.660;10.200;2022-08-03T05:49:02;6.32;;;4.63;;
20336;SDS011;10326;53.660;10.200;2022-08-03T05:51:29;5.40;;;5.00;;
20336;SDS011;10326;53.660;10.200;2022-08-03T05:53:58;5.00;;;4.70;;
20336;SDS011;10326;53.660;10.200;2022-08-03T05:56:25;5.18;;;4.80;;
20336;SDS011;10326;53.660;10.200;2022-08-03T05:58:52;5.28;;;4.88;;
20336;SDS011;10326;53.660;10.200;2022-08-03T06:01:19;5.55;;;5.15;;
20336;SDS011;10326;53.660;10.200;2022-08-03T06:03:48;5.60;;;5.20;;
20336;SDS011;10326;53.660;10.200;2022-08-03T06:06:16;5.25;;;4.75;;
20336;SDS011;10326;53.660;10.200;2022-08-03T06:08:44;5.28;;;4.78;;
20336;SDS011;10326;53.660;10.200;2022-08-03T06:11:14;5.32;;;4.57;;
20336;SDS011;10326;53.660;10.200;2022-08-03T06:13:41;4.85;;;4.55;;
20336;SDS011;10326;53.660;10.200;2022-08-03T06:16:09;5.28;;;4.60;;
20336;SDS011;10326;53.660;10.200;2022-08-03T06:18:36;4.60;;;4.20;;
20336;SDS011;10326;53.660;10.200;2022-08-03T06:21:04;4.70;;;4.30;;
20336;SDS011;10326;53.660;10.200;2022-08-03T06:23:31;4.60;;;4.20;;
20336;SDS011;10326;53.660;10.200;2022-08-03T06:25:58;4.30;;;4.00;;
20336;SDS011;10326;53.660;10.200;2022-08-03T06:28:27;5.28;;;3.83;;
20336;SDS011;10326;53.660;10.200;2022-08-03T06:30:54;4.30;;;4.00;;
20336;SDS011;10326;53.660;10.200;2022-08-03T06:33:22;4.00;;;3.70;;
20336;SDS011;10326;53.660;10.200;2022-08-03T06:35:50;4.72;;;4.07;;
20336;SDS011;10326;53.660;10.200;2022-08-03T06:38:17;3.90;;;3.60;;
20336;SDS011;10326;53.660;10.200;2022-08-03T06:40:44;3.80;;;3.50;;
20336;SDS011;10326;53.660;10.200;2022-08-03T06:43:11;3.85;;;3.45;;
20336;SDS011;10326;53.660;10.200;2022-08-03T06:45:40;4.13;;;3.83;;
20336;SDS011;10326;53.660;10.200;2022-08-03T06:48:08;4.20;;;3.67;;
20336;SDS011;10326;53.660;10.200;2022-08-03T06:50:37;3.65;;;3.35;;
20336;SDS011;10326;53.660;10.200;2022-08-03T06:53:08;3.60;;;3.40;;
20336;SDS011;10326;53.660;10.200;2022-08-03T06:55:35;3.78;;;3.47;;
20336;SDS011;10326;53.660;10.200;2022-08-03T06:58:02;3.83;;;3.40;;
20336;SDS011;10326;53.660;10.200;2022-08-03T07:00:30;3.42;;;3.10;;
20336;SDS011;10326;53.660;10.200;2022-08-03T07:02:58;3.50;;;3.20;;
20336;SDS011;10326;53.660;10.200;2022-08-03T07:05:26;3.70;;;3.40;;
20336;SDS011;10326;53.660;10.200;2022-08-03T07:07:53;3.35;;;3.05;;
20336;SDS011;10326;53.660;10.200;2022-08-03T07:10:21;3.63;;;3.33;;
20336;SDS011;10326;53.660;10.200;2022-08-03T07:12:49;3.15;;;2.90;;
20336;SDS011;10326;53.660;10.200;2022-08-03T07:15:16;3.70;;;3.40;;
20336;SDS011;10326;53.660;10.200;2022-08-03T07:17:43;3.10;;;2.80;;
20336;SDS011;10326;53.660;10.200;2022-08-03T07:20:11;3.15;;;2.95;;
20336;SDS011;10326;53.660;10.200;2022-08-03T07:22:39;4.25;;;3.20;;
20336;SDS011;10326;53.660;10.200;2022-08-03T07:25:06;3.33;;;3.00;;
20336;SDS011;10326;53.660;10.200;2022-08-03T07:27:34;3.45;;;3.15;;
20336;SDS011;10326;53.660;10.200;2022-08-03T07:30:04;3.22;;;2.95;;
20336;SDS011;10326;53.660;10.200;2022-08-03T07:32:33;3.40;;;3.20;;
20336;SDS011;10326;53.660;10.200;2022-08-03T07:35:00;2.72;;;2.53;;
20336;SDS011;10326;53.660;10.200;2022-08-03T07:37:29;3.35;;;3.15;;
20336;SDS011;10326;53.660;10.200;2022-08-03T07:39:57;3.65;;;3.35;;
20336;SDS011;10326;53.660;10.200;2022-08-03T07:42:25;3.55;;;3.00;;
20336;SDS011;10326;53.660;10.200;2022-08-03T07:44:52;2.95;;;2.70;;
20336;SDS011;10326;53.660;10.200;2022-08-03T07:47:20;3.30;;;3.10;;
20336;SDS011;10326;53.660;10.200;2022-08-03T07:49:50;3.58;;;3.05;;
20336;SDS011;10326;53.660;10.200;2022-08-03T07:52:17;2.92;;;2.65;;
20336;SDS011;10326;53.660;10.200;2022-08-03T07:55:03;3.53;;;3.05;;
20336;SDS011;10326;53.660;10.200;2022-08-03T07:57:31;3.50;;;3.20;;
20336;SDS011;10326;53.660;10.200;2022-08-03T08:00:00;3.58;;;3.22;;
20336;SDS011;10326;53.660;10.200;2022-08-03T08:02:37;3.42;;;3.08;;
20336;SDS011;10326;53.660;10.200;2022-08-03T08:05:04;3.83;;;2.70;;
20336;SDS011;10326;53.660;10.200;2022-08-03T08:07:32;3.28;;;2.72;;
20336;SDS011;10326;53.660;10.200;2022-08-03T08:09:59;6.13;;;3.30;;
20336;SDS011;10326;53.660;10.200;2022-08-03T08:12:28;3.47;;;3.17;;
20336;SDS011;10326;53.660;10.200;2022-08-03T08:14:55;3.30;;;3.00;;
20336;SDS011;10326;53.660;10.200;2022-08-03T08:17:22;3.10;;;2.80;;
20336;SDS011;10326;53.660;10.200;2022-08-03T08:19:49;3.00;;;2.50;;
20336;SDS011;10326;53.660;10.200;2022-08-03T08:22:16;3.92;;;2.40;;
20336;SDS011;10326;53.660;10.200;2022-08-03T08:24:43;3.63;;;2.72;;
20336;SDS011;10326;53.660;10.200;2022-08-03T08:27:13;3.05;;;2.83;;
20336;SDS011;10326;53.660;10.200;2022-08-03T08:29:41;3.00;;;2.80;;
20336;SDS011;10326;53.660;10.200;2022-08-03T08:32:08;3.10;;;2.90;;
20336;SDS011;10326;53.660;10.200;2022-08-03T08:34:37;2.95;;;2.60;;
20336;SDS011;10326;53.660;10.200;2022-08-03T08:37:04;2.67;;;2.47;;
20336;SDS011;10326;53.660;10.200;2022-08-03T08:39:32;4.78;;;2.55;;
20336;SDS011;10326;53.660;10.200;2022-08-03T08:41:59;2.72;;;2.53;;
20336;SDS011;10326;53.660;10.200;2022-08-03T08:44:26;3.00;;;2.75;;
20336;SDS011;10326;53.660;10.200;2022-08-03T08:46:56;3.92;;;2.40;;
20336;SDS011;10326;53.660;10.200;2022-08-03T08:49:29;2.50;;;2.30;;
20336;SDS011;10326;53.660;10.200;2022-08-03T08:51:58;3.20;;;2.22;;
20336;SDS011;10326;53.660;10.200;2022-08-03T08:54:26;2.47;;;2.28;;
20336;SDS011;10326;53.660;10.200;2022-08-03T08:56:54;2.80;;;2.60;;
20336;SDS011;10326;53.660;10.200;2022-08-03T08:59:24;2.78;;;2.05;;
20336;SDS011;10326;53.660;10.200;2022-08-03T09:01:56;3.45;;;2.10;;
20336;SDS011;10326;53.660;10.200;2022-08-03T09:04:24;2.40;;;2.20;;
20336;SDS011;10326;53.660;10.200;2022-08-03T09:06:52;3.20;;;2.00;;
20336;SDS011;10326;53.660;10.200;2022-08-03T09:09:19;2.83;;;1.80;;
20336;SDS011;10326;53.660;10.200;2022-08-03T09:11:46;2.78;;;2.00;;
20336;SDS011;10326;53.660;10.200;2022-08-03T09:14:14;2.42;;;1.90;;
20336;SDS011;10326;53.660;10.200;2022-08-03T09:16:54;4.75;;;1.80;;
20336;SDS011;10326;53.660;10.200;2022-08-03T09:19:27;3.92;;;1.98;;
20336;SDS011;10326;53.660;10.200;2022-08-03T09:24:53;2.30;;;2.00;;
20336;SDS011;10326;53.660;10.200;2022-08-03T09:27:22;2.58;;;1.98;;
20336;SDS011;10326;53.660;10.200;2022-08-03T09:29:50;3.75;;;2.00;;
20336;SDS011;10326;53.660;10.200;2022-08-03T09:32:20;2.42;;;2.20;;
20336;SDS011;10326;53.660;10.200;2022-08-03T09:34:50;3.35;;;1.98;;
20336;SDS011;10326;53.660;10.200;2022-08-03T09:37:18;4.10;;;2.30;;
20336;SDS011;10326;53.660;10.200;2022-08-03T09:39:49;3.15;;;1.75;;
20336;SDS011;10326;53.660;10.200;2022-08-03T09:42:17;2.42;;;2.00;;
20336;SDS011;10326;53.660;10.200;2022-08-03T09:44:46;4.20;;;2.13;;
20336;SDS011;10326;53.660;10.200;2022-08-03T09:47:16;4.05;;;1.75;;
20336;SDS011;10326;53.660;10.200;2022-08-03T09:49:56;2.50;;;1.63;;
20336;SDS011;10326;53.660;10.200;2022-08-03T09:52:29;3.65;;;2.03;;
20336;SDS011;10326;53.660;10.200;2022-08-03T09:54:58;3.28;;;1.83;;
20336;SDS011;10326;53.660;10.200;2022-08-03T09:57:26;3.33;;;1.77;;
20336;SDS011;10326;53.660;10.200;2022-08-03T10:00:05;3.65;;;2.10;;
20336;SDS011;10326;53.660;10.200;2022-08-03T10:02:41;4.38;;;2.05;;
20336;SDS011;10326;53.660;10.200;2022-08-03T10:05:11;4.43;;;2.08;;
20336;SDS011;10326;53.660;10.200;2022-08-03T10:07:42;4.70;;;1.85;;
20336;SDS011;10326;53.660;10.200;2022-08-03T10:10:11;3.58;;;1.90;;
20336;SDS011;10326;53.660;10.200;2022-08-03T10:12:43;3.90;;;1.80;;
20336;SDS011;10326;53.660;10.200;2022-08-03T10:15:13;3.13;;;1.83;;
20336;SDS011;10326;53.660;10.200;2022-08-03T10:17:41;3.13;;;2.08;;
20336;SDS011;10326;53.660;10.200;2022-08-03T10:20:10;2.70;;;1.98;;
20336;SDS011;10326;53.660;10.200;2022-08-03T10:22:38;3.03;;;2.20;;
20336;SDS011;10326;53.660;10.200;2022-08-03T10:25:08;5.15;;;2.10;;
20336;SDS011;10326;53.660;10.200;2022-08-03T10:27:41;3.92;;;1.95;;
20336;SDS011;10326;53.660;10.200;2022-08-03T10:30:16;3.85;;;2.00;;
20336;SDS011;10326;53.660;10.200;2022-08-03T10:32:47;3.60;;;2.28;;
20336;SDS011;10326;53.660;10.200;2022-08-03T10:35:22;3.67;;;2.00;;
20336;SDS011;10326;53.660;10.200;2022-08-03T10:37:51;3.30;;;1.90;;
20336;SDS011;10326;53.660;10.200;2022-08-03T10:40:27;2.75;;;1.77;;
20336;SDS011;10326;53.660;10.200;2022-08-03T10:43:05;2.63;;;1.98;;
20336;SDS011;10326;53.660;10.200;2022-08-03T10:45:39;2.20;;;1.77;;
20336;SDS011;10326;53.660;10.200;2022-08-03T10:48:12;1.92;;;1.65;;
20336;SDS011;10326;53.660;10.200;2022-08-03T10:50:45;2.13;;;1.90;;
20336;SDS011;10326;53.660;10.200;2022-08-03T10:53:33;5.70;;;1.83;;
20336;SDS011;10326;53.660;10.200;2022-08-03T10:56:03;4.43;;;1.55;;
20336;SDS011;10326;53.660;10.200;2022-08-03T10:58:50;2.47;;;1.70;;
20336;SDS011;10326;53.660;10.200;2022-08-03T11:01:19;1.77;;;1.60;;
20336;SDS011;10326;53.660;10.200;2022-08-03T11:04:17;4.32;;;1.67;;
20336;SDS011;10326;53.660;10.200;2022-08-03T11:06:46;3.05;;;1.80;;
20336;SDS011;10326;53.660;10.200;2022-08-03T11:09:14;1.75;;;1.63;;
20336;SDS011;10326;53.660;10.200;2022-08-03T11:11:44;3.58;;;1.75;;
20336;SDS011;10326;53.660;10.200;2022-08-03T11:14:14;2.55;;;1.58;;
20336;SDS011;10326;53.660;10.200;2022-08-03T11:16:44;5.43;;;1.88;;
20336;SDS011;10326;53.660;10.200;2022-08-03T11:19:14;4.28;;;2.00;;
20336;SDS011;10326;53.660;10.200;2022-08-03T11:21:56;2.88;;;2.00;;
20336;SDS011;10326;53.660;10.200;2022-08-03T11:27:26;2.28;;;1.80;;
20336;SDS011;10326;53.660;10.200;2022-08-03T11:30:00;2.28;;;1.60;;
20336;SDS011;10326;53.660;10.200;2022-08-03T11:32:50;2.92;;;1.65;;
20336;SDS011;10326;53.660;10.200;2022-08-03T11:35:25;4.05;;;1.67;;
20336;SDS011;10326;53.660;10.200;2022-08-03T11:38:02;3.67;;;2.22;;
20336;SDS011;10326;53.660;10.200;2022-08-03T11:40:36;3.10;;;1.55;;
20336;SDS011;10326;53.660;10.200;2022-08-03T11:43:09;3.53;;;1.70;;
20336;SDS011;10326;53.660;10.200;2022-08-03T11:46:12;2.30;;;1.42;;
20336;SDS011;10326;53.660;10.200;2022-08-03T11:48:46;4.43;;;1.88;;
20336;SDS011;10326;53.660;10.200;2022-08-03T11:51:20;3.35;;;1.50;;
20336;SDS011;10326;53.660;10.200;2022-08-03T11:53:53;3.60;;;1.67;;
20336;SDS011;10326;53.660;10.200;2022-08-03T11:56:22;2.80;;;1.70;;
20336;SDS011;10326;53.660;10.200;2022-08-03T11:58:50;2.97;;;1.30;;
20336;SDS011;10326;53.660;10.200;2022-08-03T12:01:19;3.22;;;1.45;;
20336;SDS011;10326;53.660;10.200;2022-08-03T12:03:48;2.22;;;1.58;;
20336;SDS011;10326;53.660;10.200;2022-08-03T12:06:17;1.83;;;1.50;;
20336;SDS011;10326;53.660;10.200;2022-08-03T12:08:46;6.40;;;1.73;;
20336;SDS011;10326;53.660;10.200;2022-08-03T12:11:14;2.42;;;1.40;;
20336;SDS011;10326;53.660;10.200;2022-08-03T12:13:42;3.65;;;1.63;;
20336;SDS011;10326;53.660;10.200;2022-08-03T12:16:15;2.85;;;1.60;;
20336;SDS011;10326;53.660;10.200;2022-08-03T12:18:43;3.35;;;1.52;;
20336;SDS011;10326;53.660;10.200;2022-08-03T12:21:11;2.40;;;1.60;;
20336;SDS011;10326;53.660;10.200;2022-08-03T12:23:39;2.88;;;1.60;;
20336;SDS011;10326;53.660;10.200;2022-08-03T12:26:07;3.65;;;1.80;;
20336;SDS011;10326;53.660;10.200;2022-08-03T12:28:35;2.80;;;1.60;;
20336;SDS011;10326;53.660;10.200;2022-08-03T12:31:03;5.28;;;1.45;;
20336;SDS011;10326;53.660;10.200;2022-08-03T12:36:27;2.28;;;1.35;;
20336;SDS011;10326;53.660;10.200;2022-08-03T12:38:59;3.42;;;1.50;;
20336;SDS011;10326;53.660;10.200;2022-08-03T12:41:29;3.15;;;1.40;;
20336;SDS011;10326;53.660;10.200;2022-08-03T12:44:00;3.33;;;1.58;;
20336;SDS011;10326;53.660;10.200;2022-08-03T12:46:29;2.70;;;1.50;;
20336;SDS011;10326;53.660;10.200;2022-08-03T12:48:59;3.20;;;1.67;;
20336;SDS011;10326;53.660;10.200;2022-08-03T12:51:36;3.33;;;1.42;;
20336;SDS011;10326;53.660;10.200;2022-08-03T12:54:23;4.68;;;1.77;;
20336;SDS011;10326;53.660;10.200;2022-08-03T12:56:55;3.00;;;1.35;;
20336;SDS011;10326;53.660;10.200;2022-08-03T12:59:25;2.58;;;1.60;;
20336;SDS011;10326;53.660;10.200;2022-08-03T13:01:55;2.47;;;1.50;;
20336;SDS011;10326;53.660;10.200;2022-08-03T13:04:25;3.38;;;1.60;;
20336;SDS011;10326;53.660;10.200;2022-08-03T13:06:58;2.92;;;1.42;;
20336;SDS011;10326;53.660;10.200;2022-08-03T13:09:28;2.78;;;1.77;;
20336;SDS011;10326;53.660;10.200;2022-08-03T13:12:03;1.98;;;1.40;;
20336;SDS011;10326;53.660;10.200;2022-08-03T13:14:32;2.78;;;1.55;;
20336;SDS011;10326;53.660;10.200;2022-08-03T13:16:59;3.70;;;1.80;;
20336;SDS011;10326;53.660;10.200;2022-08-03T13:19:27;1.77;;;1.48;;
20336;SDS011;10326;53.660;10.200;2022-08-03T13:21:54;3.97;;;1.50;;
20336;SDS011;10326;53.660;10.200;2022-08-03T13:24:21;2.58;;;1.50;;
20336;SDS011;10326;53.660;10.200;2022-08-03T13:26:50;2.50;;;1.40;;
20336;SDS011;10326;53.660;10.200;2022-08-03T13:29:17;3.08;;;1.40;;
20336;SDS011;10326;53.660;10.200;2022-08-03T13:31:44;2.88;;;1.42;;
20336;SDS011;10326;53.660;10.200;2022-08-03T13:34:11;2.33;;;1.55;;
20336;SDS011;10326;53.660;10.200;2022-08-03T13:36:38;3.97;;;1.60;;
20336;SDS011;10326;53.660;10.200;2022-08-03T13:39:05;2.92;;;1.80;;
20336;SDS011;10326;53.660;10.200;2022-08-03T13:41:32;2.83;;;1.80;;
20336;SDS011;10326;53.660;10.200;2022-08-03T13:44:01;3.17;;;1.60;;
20336;SDS011;10326;53.660;10.200;2022-08-03T13:46:28;2.92;;;1.40;;
20336;SDS011;10326;53.660;10.200;2022-08-03T13:48:55;2.50;;;1.40;;
20336;SDS011;10326;53.660;10.200;2022-08-03T13:51:22;4.05;;;1.52;;
20336;SDS011;10326;53.660;10.200;2022-08-03T13:53:49;2.22;;;1.60;;
20336;SDS011;10326;53.660;10.200;2022-08-03T13:56:17;3.65;;;1.83;;
20336;SDS011;10326;53.660;10.200;2022-08-03T13:58:44;3.70;;;1.60;;
20336;SDS011;10326;53.660;10.200;2022-08-03T14:01:13;2.50;;;1.30;;
20336;SDS011;10326;53.660;10.200;2022-08-03T14:03:40;2.45;;;1.55;;
20336;SDS011;10326;53.660;10.200;2022-08-03T14:06:07;1.63;;;1.40;;
20336;SDS011;10326;53.660;10.200;2022-08-03T14:08:34;2.50;;;1.58;;
20336;SDS011;10326;53.660;10.200;2022-08-03T14:11:02;3.30;;;1.50;;
20336;SDS011;10326;53.660;10.200;2022-08-03T14:13:29;2.33;;;1.58;;
20336;SDS011;10326;53.660;10.200;2022-08-03T14:15:56;2.45;;;1.52;;
20336;SDS011;10326;53.660;10.200;2022-08-03T14:18:25;4.35;;;1.80;;
20336;SDS011;10326;53.660;10.200;2022-08-03T14:20:52;3.08;;;2.17;;
20336;SDS011;10326;53.660;10.200;2022-08-03T14:23:19;5.60;;;1.95;;
20336;SDS011;10326;53.660;10.200;2022-08-03T14:25:46;3.10;;;1.70;;
20336;SDS011;10326;53.660;10.200;2022-08-03T14:28:13;2.15;;;1.20;;
20336;SDS011;10326;53.660;10.200;2022-08-03T14:30:40;2.05;;;1.45;;
20336;SDS011;10326;53.660;10.200;2022-08-03T14:33:07;2.45;;;1.40;;
20336;SDS011;10326;53.660;10.200;2022-08-03T14:35:36;2.40;;;1.40;;
20336;SDS011;10326;53.660;10.200;2022-08-03T14:38:03;3.65;;;1.52;;
20336;SDS011;10326;53.660;10.200;2022-08-03T14:40:30;2.30;;;1.65;;
20336;SDS011;10326;53.660;10.200;2022-08-03T14:42:58;3.30;;;1.80;;
20336;SDS011;10326;53.660;10.200;2022-08-03T14:45:26;2.63;;;1.80;;
20336;SDS011;10326;53.660;10.200;2022-08-03T14:47:53;2.53;;;1.45;;
20336;SDS011;10326;53.660;10.200;2022-08-03T14:50:20;3.33;;;1.38;;
20336;SDS011;10326;53.660;10.200;2022-08-03T14:52:49;4.15;;;1.55;;
20336;SDS011;10326;53.660;10.200;2022-08-03T14:55:16;2.97;;;1.40;;
20336;SDS011;10326;53.660;10.200;2022-08-03T14:57:43;4.65;;;1.50;;
20336;SDS011;10326;53.660;10.200;2022-08-03T15:00:11;1.95;;;1.30;;